OPA Logo
 

ASOS: KRDM
At:2017.10.18 0056 UTC
Wind:320° @ 9KT
Viz: 10 mile(s)
Sky: clear
Temp: 61.0 F (16.1 C)
DewP: 26.1 F (-3.3 C)
RH: 26%
Baro: 30.09 in.
ob: KRDM 180056Z 32009KT 10SM CLR 16/M03 A3009 RMK AO2 SLP187 T01611033
Apache-SSL Logo

Valid HTML 4.01!

Central Oregon OPA Chapter

XMAS Party December 2001

Click on Images to see image full size

Nancy
Nancy Lecklider and new friend
Ann, Virgina and Dale
Ann, Virginia and Dale
The Gang
The Gang

Photo Credits: Dean Cameron


Web page by: gem@rellim.com